createdAt,value
2024-03-12T00:00:53.158Z,4.63
2024-03-12T00:05:55.102Z,3.08
2024-03-12T00:10:58.603Z,3.58
2024-03-12T00:16:00.353Z,4.35
2024-03-12T00:21:02.039Z,3.30
2024-03-12T00:26:05.483Z,6.35
2024-03-12T00:31:07.338Z,5.25
2024-03-12T00:36:09.398Z,5.47
2024-03-12T00:41:12.446Z,6.78
2024-03-12T00:46:14.145Z,6.97
2024-03-12T00:51:15.780Z,9.93
2024-03-12T00:56:18.737Z,6.70
2024-03-12T01:01:20.480Z,8.68
2024-03-12T01:06:22.222Z,8.30
2024-03-12T01:11:25.423Z,9.10
2024-03-12T01:16:27.067Z,10.82
2024-03-12T01:21:28.782Z,11.18
2024-03-12T01:26:31.966Z,8.75
2024-03-12T01:31:33.663Z,9.93
2024-03-12T01:36:35.358Z,8.48
2024-03-12T01:41:38.396Z,10.13
2024-03-12T01:46:55.062Z,9.60
2024-03-12T01:51:56.798Z,10.65
2024-03-12T01:56:59.793Z,11.35
2024-03-12T02:02:01.577Z,9.75
2024-03-12T02:07:03.423Z,8.73
2024-03-12T02:12:07.139Z,10.02
2024-03-12T02:17:08.748Z,11.07
2024-03-12T02:22:10.441Z,10.95
2024-03-12T02:27:13.736Z,11.25
2024-03-12T02:32:15.582Z,9.27
2024-03-12T02:37:17.498Z,9.05
2024-03-12T02:42:20.568Z,9.13
2024-03-12T02:47:22.242Z,9.85
2024-03-12T02:52:23.948Z,7.68
2024-03-12T02:57:26.962Z,14.32
2024-03-12T03:02:28.631Z,9.40
2024-03-12T03:07:30.301Z,8.77
2024-03-12T03:12:33.690Z,10.40
2024-03-12T03:17:35.350Z,10.52
2024-03-12T03:22:36.972Z,10.90
2024-03-12T03:27:40.515Z,10.63
2024-03-12T03:32:42.375Z,11.63
2024-03-12T03:37:44.690Z,11.50
2024-03-12T03:42:47.720Z,10.60
2024-03-12T03:47:49.374Z,10.82
2024-03-12T03:52:51.067Z,10.57
2024-03-12T03:57:54.255Z,11.20
2024-03-12T04:02:55.875Z,14.52
2024-03-12T04:07:57.509Z,9.93
2024-03-12T04:13:00.925Z,15.80
2024-03-12T04:18:02.723Z,16.33
2024-03-12T04:23:04.707Z,20.02
2024-03-12T04:28:08.086Z,17.75
2024-03-12T04:33:09.923Z,20.52
2024-03-12T04:38:12.627Z,21.00
2024-03-12T04:43:17.086Z,22.10
2024-03-12T04:48:18.762Z,18.70
2024-03-12T04:53:23.227Z,17.10
2024-03-12T04:58:26.537Z,23.33
2024-03-12T05:03:28.134Z,21.15
2024-03-12T05:08:29.788Z,26.45
2024-03-12T05:13:32.952Z,18.60
2024-03-12T05:18:34.666Z,18.17
2024-03-12T05:23:36.302Z,21.75
2024-03-12T05:28:39.610Z,19.65
2024-03-12T05:33:41.224Z,15.43
2024-03-12T05:38:43.028Z,18.48
2024-03-12T05:43:48.172Z,22.98
2024-03-12T05:48:52.186Z,21.75
2024-03-12T05:53:54.312Z,21.10
2024-03-12T05:58:57.237Z,23.33
2024-03-12T06:03:58.913Z,28.27
2024-03-12T06:09:00.593Z,21.17
2024-03-12T06:14:04.549Z,25.10
2024-03-12T06:19:06.395Z,25.33
2024-03-12T06:24:08.726Z,23.98
2024-03-12T06:29:12.117Z,27.05
2024-03-12T06:34:13.879Z,27.05
2024-03-12T06:39:15.749Z,24.25
2024-03-12T06:44:18.705Z,35.58
2024-03-12T06:49:20.829Z,20.08
2024-03-12T06:54:22.472Z,26.50
2024-03-12T06:59:25.442Z,26.30
2024-03-12T07:04:27.104Z,27.15
2024-03-12T07:09:28.764Z,25.40
2024-03-12T07:14:31.733Z,25.42
2024-03-12T07:19:33.372Z,24.23
2024-03-12T07:24:35.375Z,24.67
2024-03-12T07:29:38.542Z,24.77
2024-03-12T07:34:40.286Z,25.67
2024-03-12T07:39:41.953Z,22.95
2024-03-12T07:44:45.045Z,23.88
2024-03-12T07:49:46.633Z,24.55
2024-03-12T07:54:48.682Z,26.10
2024-03-12T07:59:51.757Z,22.88
2024-03-12T08:04:53.349Z,22.67
2024-03-12T08:09:54.980Z,29.33
2024-03-12T08:14:58.156Z,24.55
2024-03-12T08:19:59.793Z,17.67
2024-03-12T08:25:01.454Z,20.27
2024-03-12T08:30:05.891Z,20.98
2024-03-12T08:35:08.492Z,23.92
2024-03-12T08:40:10.778Z,20.83
2024-03-12T08:45:13.760Z,20.77
2024-03-12T08:50:15.836Z,17.60
2024-03-12T08:55:17.711Z,16.83
2024-03-12T09:00:21.127Z,21.02
2024-03-12T09:05:22.915Z,17.42
2024-03-12T09:10:24.645Z,18.90
2024-03-12T09:15:27.813Z,18.63
2024-03-12T09:20:29.437Z,16.33
2024-03-12T09:25:31.167Z,18.20
2024-03-12T09:30:34.516Z,16.98
2024-03-12T09:35:36.288Z,16.08
2024-03-12T09:40:38.110Z,19.40
2024-03-12T09:45:41.300Z,18.17
2024-03-12T09:50:43.369Z,14.63
2024-03-12T09:55:45.445Z,14.85
2024-03-12T10:00:48.544Z,13.15
2024-03-12T10:05:51.486Z,16.33
2024-03-12T10:10:53.147Z,46.08
2024-03-12T10:15:58.485Z,16.70
2024-03-12T10:21:01.374Z,14.48
2024-03-12T10:26:07.973Z,15.45
2024-03-12T10:31:13.027Z,18.05
2024-03-12T10:36:29.281Z,16.70
2024-03-12T10:41:31.063Z,16.00
2024-03-12T10:46:34.623Z,18.20
2024-03-12T10:51:37.167Z,14.25
2024-03-12T10:56:39.550Z,14.80
2024-03-12T11:01:43.139Z,14.85
2024-03-12T11:06:46.987Z,13.15
2024-03-12T11:11:48.611Z,15.75
2024-03-12T11:16:53.226Z,16.48
2024-03-12T11:22:00.860Z,18.10
2024-03-12T11:27:03.404Z,21.17
2024-03-12T11:32:09.601Z,16.10
2024-03-12T11:37:15.648Z,14.27
2024-03-12T11:42:17.423Z,20.98
2024-03-12T11:47:31.488Z,16.15
2024-03-12T11:52:33.561Z,18.38
2024-03-12T11:57:35.305Z,18.23
2024-03-12T12:02:42.640Z,13.32
2024-03-12T12:07:44.299Z,17.25
2024-03-12T12:12:46.035Z,17.58
2024-03-12T12:17:49.200Z,18.88
2024-03-12T12:22:50.866Z,18.23
2024-03-12T12:27:53.356Z,20.20
2024-03-12T12:32:56.914Z,25.65
2024-03-12T12:37:58.920Z,19.63
2024-03-12T12:43:00.593Z,23.35
2024-03-12T12:48:04.483Z,21.17
2024-03-12T12:53:06.155Z,18.70
2024-03-12T12:58:08.227Z,20.13
2024-03-12T13:03:15.925Z,21.13
2024-03-12T13:08:21.923Z,17.67
2024-03-12T13:13:23.711Z,19.00
2024-03-12T13:18:26.942Z,16.95
2024-03-12T13:23:28.633Z,20.05
2024-03-12T13:28:30.469Z,20.67
2024-03-12T13:33:33.614Z,18.27
2024-03-12T13:38:35.434Z,19.38
2024-03-12T13:43:37.944Z,16.75
2024-03-12T13:53:42.822Z,20.23
2024-03-12T13:58:45.619Z,18.80
2024-03-12T14:03:50.179Z,25.95
2024-03-12T14:08:51.814Z,17.80
2024-03-12T14:13:53.872Z,22.35
2024-03-12T14:18:57.168Z,16.17
2024-03-12T14:23:58.809Z,21.40
2024-03-12T14:29:00.418Z,21.45
2024-03-12T14:34:03.663Z,17.65
2024-03-12T14:39:05.430Z,17.55
2024-03-12T14:44:07.089Z,22.13
2024-03-12T14:49:10.278Z,16.60
2024-03-12T14:54:11.994Z,22.67
2024-03-12T14:59:13.616Z,20.50
2024-03-12T15:04:16.622Z,22.00
2024-03-12T15:09:18.264Z,21.63
2024-03-12T15:14:19.927Z,22.00
2024-03-12T15:19:23.411Z,23.00
2024-03-12T15:24:25.076Z,19.35
2024-03-12T15:29:26.728Z,23.15
2024-03-12T15:34:30.040Z,21.17
2024-03-12T15:39:31.739Z,18.98
2024-03-12T15:44:33.403Z,23.40
2024-03-12T15:49:36.399Z,18.23
2024-03-12T15:54:39.219Z,21.02
2024-03-12T15:59:41.058Z,22.20
2024-03-12T16:04:44.121Z,19.15
2024-03-12T16:09:45.827Z,20.42
2024-03-12T16:14:47.607Z,23.65
2024-03-12T16:19:50.847Z,20.23
2024-03-12T16:24:52.515Z,18.48
2024-03-12T16:29:54.202Z,17.25
2024-03-12T16:34:57.519Z,19.10
2024-03-12T16:39:59.178Z,15.23
2024-03-12T16:45:01.039Z,14.93
2024-03-12T16:50:04.483Z,17.33
2024-03-12T16:55:07.554Z,16.73
2024-03-12T17:00:10.417Z,13.80
2024-03-12T17:05:15.482Z,14.88
2024-03-12T17:10:17.896Z,21.35
2024-03-12T17:15:20.407Z,15.57
2024-03-12T17:20:24.185Z,16.23
2024-03-12T17:25:26.438Z,21.02
2024-03-12T17:30:28.524Z,16.60
2024-03-12T17:35:32.250Z,16.98
2024-03-12T17:40:34.574Z,18.20
2024-03-12T17:45:36.639Z,19.75
2024-03-12T17:50:40.397Z,18.02
2024-03-12T17:55:42.581Z,16.08
2024-03-12T18:00:44.893Z,18.58
2024-03-12T18:05:49.380Z,21.10
2024-03-12T18:10:56.881Z,21.58
2024-03-12T18:15:58.787Z,15.65
2024-03-12T18:21:02.062Z,14.35
2024-03-12T18:26:04.024Z,18.65
2024-03-12T18:31:05.649Z,17.67
2024-03-12T18:36:09.482Z,18.55
2024-03-12T18:41:11.288Z,17.77
2024-03-12T18:46:12.966Z,17.55
2024-03-12T18:51:16.579Z,22.27
2024-03-12T18:56:19.084Z,18.65
2024-03-12T19:01:23.273Z,17.30
2024-03-12T19:06:27.849Z,16.70
2024-03-12T19:11:30.139Z,20.10
2024-03-12T19:16:34.433Z,19.80
2024-03-12T19:21:38.182Z,16.25
2024-03-12T19:26:39.823Z,21.25
2024-03-12T19:31:42.114Z,18.63
2024-03-12T19:36:46.141Z,18.05
2024-03-12T19:41:48.462Z,17.63
2024-03-12T19:46:50.686Z,19.77
2024-03-12T19:51:54.156Z,21.40
2024-03-12T19:56:55.824Z,17.58
2024-03-12T20:01:57.739Z,16.63
2024-03-12T20:07:01.280Z,18.40
2024-03-12T20:12:03.181Z,19.42
2024-03-12T20:17:05.118Z,20.77
2024-03-12T20:22:08.209Z,21.92
2024-03-12T20:27:10.330Z,20.52
2024-03-12T20:32:11.995Z,20.98
2024-03-12T20:37:15.862Z,25.70
2024-03-12T20:42:17.657Z,23.25
2024-03-12T20:47:19.283Z,16.90
2024-03-12T20:52:22.325Z,19.83
2024-03-12T20:57:24.078Z,19.70
2024-03-12T21:02:25.850Z,22.95
2024-03-12T21:07:28.816Z,19.85
2024-03-12T21:12:30.640Z,17.13
2024-03-12T21:17:32.324Z,21.13
2024-03-12T21:22:35.290Z,23.35
2024-03-12T21:27:37.055Z,18.85
2024-03-12T21:32:38.810Z,16.15
2024-03-12T21:37:42.117Z,16.42
2024-03-12T21:42:44.153Z,15.45
2024-03-12T21:47:48.635Z,14.93
2024-03-12T21:52:52.203Z,16.70
2024-03-12T21:57:53.873Z,15.70
2024-03-12T22:02:55.524Z,15.32
2024-03-12T22:07:58.542Z,20.05
2024-03-12T22:13:00.184Z,13.02
2024-03-12T22:18:01.863Z,13.32
2024-03-12T22:23:04.896Z,10.93
2024-03-12T22:28:06.621Z,12.68
2024-03-12T22:33:08.354Z,10.13
2024-03-12T22:38:12.158Z,11.50
2024-03-12T22:43:14.579Z,12.52
2024-03-12T22:48:16.431Z,12.85
2024-03-12T22:53:22.810Z,11.35
2024-03-12T22:58:25.015Z,10.77
2024-03-12T23:03:27.255Z,10.48
2024-03-12T23:08:30.541Z,10.15
2024-03-12T23:13:32.229Z,11.27
2024-03-12T23:18:35.624Z,9.10
2024-03-12T23:23:38.628Z,9.00
2024-03-12T23:28:40.282Z,9.32
2024-03-12T23:33:41.935Z,9.00
2024-03-12T23:38:44.946Z,10.52
2024-03-12T23:43:46.765Z,9.48
2024-03-12T23:48:48.483Z,9.95
2024-03-12T23:53:51.442Z,9.50
2024-03-12T23:58:53.079Z,11.60
